createdAt,value
2016-05-09T00:00:04.074Z,0
2016-05-09T00:00:51.106Z,0
2016-05-09T00:01:51.140Z,0
2016-05-09T00:02:50.988Z,0
2016-05-09T00:03:51.209Z,0
2016-05-09T00:05:03.946Z,0
2016-05-09T00:06:03.792Z,0
2016-05-09T00:07:48.204Z,0
2016-05-09T00:08:07.188Z,0
2016-05-09T00:09:00.723Z,0
2016-05-09T00:10:03.975Z,0
2016-05-09T00:11:13.495Z,0
2016-05-09T00:12:07.230Z,0
2016-05-09T00:13:26.704Z,0
2016-05-09T00:14:20.411Z,0
2016-05-09T00:15:00.879Z,0
2016-05-09T00:16:59.384Z,0
2016-05-09T00:17:11.886Z,0
2016-05-09T00:18:31.124Z,0
2016-05-09T00:19:11.830Z,0
2016-05-09T00:21:14.539Z,0
2016-05-09T00:21:27.055Z,0
2016-05-09T00:22:27.150Z,0
2016-05-09T00:23:27.247Z,0
2016-05-09T00:24:27.046Z,0
2016-05-09T00:25:27.127Z,0
2016-05-09T00:26:30.192Z,0
2016-05-09T00:27:27.352Z,0
2016-05-09T00:28:39.932Z,0
2016-05-09T00:29:28.622Z,0
2016-05-09T00:30:27.375Z,0
2016-05-09T00:31:40.034Z,0
2016-05-09T00:32:29.068Z,0
2016-05-09T00:33:27.430Z,0
2016-05-09T00:34:40.229Z,0
2016-05-09T00:35:27.326Z,0
2016-05-09T00:36:40.345Z,0
2016-05-09T00:37:27.347Z,0
2016-05-09T00:38:27.662Z,0
2016-05-09T00:39:28.821Z,0
2016-05-09T00:40:46.777Z,0
2016-05-09T00:41:27.467Z,0
2016-05-09T00:42:27.657Z,0
2016-05-09T00:43:27.660Z,0
2016-05-09T00:44:40.304Z,0
2016-05-09T00:45:29.164Z,0
2016-05-09T00:46:27.762Z,0
2016-05-09T00:47:40.327Z,0
2016-05-09T00:48:29.173Z,0
2016-05-09T00:49:40.285Z,0
2016-05-09T00:50:29.226Z,0
2016-05-09T00:51:27.931Z,0
2016-05-09T00:52:27.700Z,0
2016-05-09T00:53:35.405Z,0
2016-05-09T00:54:29.314Z,0
2016-05-09T00:55:27.958Z,0
2016-05-09T00:56:40.679Z,0
2016-05-09T00:57:27.807Z,0
2016-05-09T00:58:47.200Z,0
2016-05-09T00:59:27.844Z,0
2016-05-09T01:00:29.409Z,0
2016-05-09T01:01:40.755Z,0
2016-05-09T01:02:34.180Z,0
2016-05-09T01:03:27.745Z,0
2016-05-09T01:04:47.310Z,0
2016-05-09T01:05:27.954Z,0
2016-05-09T01:06:28.096Z,0
2016-05-09T01:07:40.584Z,0
2016-05-09T01:08:29.601Z,0
2016-05-09T01:09:47.402Z,0
2016-05-09T01:10:28.218Z,0
2016-05-09T01:11:28.079Z,0
2016-05-09T01:12:40.987Z,0
2016-05-09T01:13:31.350Z,0
2016-05-09T01:14:28.367Z,0
2016-05-09T01:15:28.200Z,0
2016-05-09T01:16:28.328Z,0
2016-05-09T01:17:28.423Z,0
2016-05-09T01:18:28.098Z,0
2016-05-09T01:19:41.178Z,0
2016-05-09T01:20:31.322Z,0
2016-05-09T01:21:47.715Z,0
2016-05-09T01:22:34.734Z,0
2016-05-09T01:24:25.442Z,0
2016-05-09T01:24:50.833Z,0
2016-05-09T01:25:38.116Z,0
2016-05-09T01:27:35.028Z,0
2016-05-09T01:27:47.747Z,0
2016-05-09T01:29:00.313Z,0
2016-05-09T01:30:00.518Z,0
2016-05-09T01:30:47.599Z,0
2016-05-09T01:32:13.448Z,0
2016-05-09T01:32:49.213Z,0
2016-05-09T01:33:47.810Z,0
2016-05-09T01:34:47.688Z,0
2016-05-09T01:35:48.956Z,0
2016-05-09T01:36:49.396Z,0
2016-05-09T01:37:47.758Z,0
2016-05-09T01:38:48.090Z,0
2016-05-09T01:39:47.936Z,0
2016-05-09T01:40:48.032Z,0
2016-05-09T01:42:00.738Z,0
2016-05-09T01:43:00.740Z,0
2016-05-09T01:44:07.258Z,0
2016-05-09T01:45:13.420Z,0
2016-05-09T01:45:47.889Z,0
2016-05-09T01:47:50.504Z,0
2016-05-09T01:48:22.241Z,0
2016-05-09T01:49:03.350Z,0
2016-05-09T01:50:05.947Z,0
2016-05-09T01:51:15.984Z,0
2016-05-09T01:52:03.265Z,0
2016-05-09T01:53:03.189Z,0
2016-05-09T01:54:06.208Z,0
2016-05-09T01:55:03.194Z,0
2016-05-09T01:56:03.353Z,0
2016-05-09T01:57:03.419Z,0
2016-05-09T01:58:15.986Z,0
2016-05-09T01:59:03.299Z,0
2016-05-09T02:00:25.601Z,0
2016-05-09T02:01:03.445Z,0
2016-05-09T02:03:00.529Z,0
2016-05-09T02:03:13.204Z,0
2016-05-09T02:04:13.253Z,0
2016-05-09T02:05:16.255Z,0
2016-05-09T02:06:16.257Z,0
2016-05-09T02:07:25.854Z,0
2016-05-09T02:08:13.405Z,0
2016-05-09T02:09:13.345Z,0
2016-05-09T02:10:32.582Z,0
2016-05-09T02:11:26.100Z,0
2016-05-09T02:12:44.665Z,0
2016-05-09T02:13:39.323Z,0
2016-05-09T02:16:16.020Z,0
2016-05-09T02:16:28.864Z,0
2016-05-09T02:17:28.725Z,0
2016-05-09T02:18:28.728Z,0
2016-05-09T02:19:28.761Z,0
2016-05-09T02:20:28.764Z,0
2016-05-09T02:21:36.314Z,0
2016-05-09T02:22:28.676Z,0
2016-05-09T02:23:28.904Z,0
2016-05-09T02:24:28.704Z,0
2016-05-09T02:25:28.862Z,0
2016-05-09T02:26:28.882Z,0
2016-05-09T02:27:29.010Z,0
2016-05-09T02:28:28.793Z,0
2016-05-09T02:29:41.545Z,0
2016-05-09T02:30:41.704Z,0
2016-05-09T02:31:54.660Z,0
2016-05-09T02:33:26.041Z,0
2016-05-09T02:33:38.713Z,0
2016-05-09T02:35:04.075Z,0
2016-05-09T02:35:38.765Z,0
2016-05-09T02:36:38.783Z,0
2016-05-09T02:37:51.520Z,0
2016-05-09T02:38:51.382Z,0
2016-05-09T02:39:58.135Z,0
2016-05-09T02:40:59.387Z,0
2016-05-09T02:41:58.156Z,0
2016-05-09T02:43:04.425Z,0
2016-05-09T02:43:40.177Z,0
2016-05-09T02:44:39.273Z,0
2016-05-09T02:45:51.667Z,0
2016-05-09T02:46:38.982Z,0
2016-05-09T02:48:10.235Z,0
2016-05-09T02:48:39.191Z,0
2016-05-09T02:49:39.022Z,0
2016-05-09T02:50:40.446Z,0
2016-05-09T02:51:40.464Z,0
2016-05-09T02:52:38.966Z,0
2016-05-09T02:53:39.126Z,0
2016-05-09T02:54:38.956Z,0
2016-05-09T02:55:39.163Z,0
2016-05-09T02:56:39.149Z,0
2016-05-09T02:57:39.324Z,0
2016-05-09T02:58:38.873Z,0
2016-05-09T02:59:39.314Z,0
2016-05-09T03:00:46.770Z,0
2016-05-09T03:01:39.335Z,0
2016-05-09T03:02:39.618Z,0
2016-05-09T03:03:39.356Z,0
2016-05-09T03:04:42.280Z,0
2016-05-09T03:05:39.392Z,0
2016-05-09T03:06:58.598Z,0
2016-05-09T03:07:52.195Z,0
2016-05-09T03:09:05.181Z,0
2016-05-09T03:09:52.138Z,0
2016-05-09T03:10:39.625Z,0
2016-05-09T03:11:39.299Z,0
2016-05-09T03:12:58.770Z,0
2016-05-09T03:13:52.414Z,0
2016-05-09T03:15:11.183Z,0
2016-05-09T03:17:20.331Z,0
2016-05-09T03:18:20.318Z,0
2016-05-09T03:19:20.352Z,0
2016-05-09T03:20:32.933Z,0
2016-05-09T03:21:23.405Z,0
2016-05-09T03:22:46.047Z,0
2016-05-09T03:23:20.410Z,0
2016-05-09T03:24:51.724Z,5
2016-05-09T03:25:33.196Z,5
2016-05-09T03:26:51.793Z,5
2016-05-09T03:27:33.046Z,5
2016-05-09T03:28:20.627Z,5
2016-05-09T03:29:33.066Z,5
2016-05-09T03:30:39.413Z,5
2016-05-09T03:31:39.790Z,5
2016-05-09T03:32:46.293Z,10
2016-05-09T03:33:42.701Z,10
2016-05-09T03:35:12.502Z,10
2016-05-09T03:36:22.335Z,10
2016-05-09T03:37:06.023Z,10
2016-05-09T03:37:35.040Z,15
2016-05-09T03:39:06.248Z,15
2016-05-09T03:39:35.093Z,15
2016-05-09T03:40:35.112Z,15
2016-05-09T03:41:34.926Z,15
2016-05-09T03:42:34.961Z,20
2016-05-09T03:45:04.029Z,20
2016-05-09T03:45:51.109Z,25
2016-05-09T03:46:39.987Z,25
2016-05-09T03:47:51.130Z,25
2016-05-09T03:48:47.930Z,30
2016-05-09T03:50:01.480Z,30
2016-05-09T03:50:40.982Z,30
2016-05-09T03:52:41.878Z,35
2016-05-09T03:52:54.566Z,35
2016-05-09T03:53:54.599Z,35
2016-05-09T03:54:57.633Z,40
2016-05-09T03:55:54.714Z,40
2016-05-09T03:56:54.639Z,40
2016-05-09T03:58:07.391Z,45
2016-05-09T03:59:07.519Z,45
2016-05-09T04:00:08.834Z,50
2016-05-09T04:01:13.900Z,50
2016-05-09T04:01:54.824Z,50
2016-05-09T04:03:26.048Z,55
2016-05-09T04:03:54.751Z,55
2016-05-09T04:04:54.879Z,55
2016-05-09T04:06:07.397Z,60
2016-05-09T04:06:54.963Z,60
2016-05-09T04:08:14.075Z,65
2016-05-09T04:08:54.609Z,65
2016-05-09T04:10:20.676Z,70
2016-05-09T04:10:58.145Z,70
2016-05-09T04:12:57.495Z,75
2016-05-09T04:13:35.842Z,75
2016-05-09T04:14:09.967Z,75
2016-05-09T04:16:08.580Z,80
2016-05-09T04:16:21.099Z,80
2016-05-09T04:17:21.117Z,80
2016-05-09T04:18:21.120Z,85
2016-05-09T04:19:22.623Z,85
2016-05-09T04:20:33.906Z,90
2016-05-09T04:21:24.049Z,90
2016-05-09T04:22:21.240Z,90
2016-05-09T04:23:24.274Z,95
2016-05-09T04:24:20.980Z,95
2016-05-09T04:25:21.295Z,100
2016-05-09T04:26:40.204Z,100
2016-05-09T04:27:22.785Z,105
2016-05-09T04:29:18.009Z,105
2016-05-09T04:29:30.774Z,105
2016-05-09T04:31:33.796Z,110
2016-05-09T04:31:46.499Z,110
2016-05-09T04:32:46.454Z,115
2016-05-09T04:34:05.707Z,115
2016-05-09T04:34:46.601Z,115
2016-05-09T04:36:43.512Z,120
2016-05-09T04:36:56.168Z,120
2016-05-09T04:38:58.768Z,125
2016-05-09T04:39:30.692Z,125
2016-05-09T04:40:11.536Z,130
2016-05-09T04:41:11.492Z,130
2016-05-09T04:42:17.778Z,130
2016-05-09T04:43:14.653Z,135
2016-05-09T04:44:37.065Z,135
2016-05-09T04:45:11.596Z,140
2016-05-09T04:46:30.773Z,140
2016-05-09T04:47:11.711Z,140
2016-05-09T04:49:15.622Z,145
2016-05-09T04:49:53.970Z,145
2016-05-09T04:50:28.330Z,145
2016-05-09T04:53:47.245Z,155
2016-05-09T04:54:47.388Z,155
2016-05-09T04:55:48.845Z,160
2016-05-09T04:57:44.053Z,160
2016-05-09T04:58:59.649Z,160
2016-05-09T04:59:12.446Z,165
2016-05-09T05:00:12.340Z,170
2016-05-09T05:01:13.842Z,180
2016-05-09T05:02:24.848Z,185
2016-05-09T05:03:25.194Z,195
2016-05-09T05:05:34.215Z,215
2016-05-09T05:05:46.731Z,220
2016-05-09T05:08:27.801Z,590
2016-05-09T05:09:59.179Z,960
2016-05-09T05:10:37.557Z,960
2016-05-09T05:11:11.901Z,955
2016-05-09T05:13:14.484Z,940
2016-05-09T05:13:27.018Z,935
2016-05-09T05:15:17.539Z,925
2016-05-09T05:15:30.226Z,925
2016-05-09T05:16:37.572Z,915
2016-05-09T05:17:30.123Z,925
2016-05-09T05:18:30.328Z,930
2016-05-09T05:19:43.050Z,935
2016-05-09T05:20:31.599Z,930
2016-05-09T05:21:30.399Z,920
2016-05-09T05:22:30.401Z,945
2016-05-09T05:23:30.530Z,960
2016-05-09T05:24:30.439Z,955
2016-05-09T05:25:30.550Z,955
2016-05-09T05:26:33.490Z,980
2016-05-09T05:27:30.399Z,1005
2016-05-09T05:28:30.371Z,1015
2016-05-09T05:29:30.514Z,1045
2016-05-09T05:30:30.455Z,1055
2016-05-09T05:31:49.957Z,1050
2016-05-09T05:32:30.631Z,1070
2016-05-09T05:34:01.962Z,1110
2016-05-09T05:34:32.168Z,1120
2016-05-09T05:35:30.733Z,1130
2016-05-09T05:36:30.611Z,1110
2016-05-09T05:37:30.770Z,1110
2016-05-09T05:38:30.835Z,1145
2016-05-09T05:39:30.681Z,1150
2016-05-09T05:40:33.762Z,1105
2016-05-09T05:41:30.749Z,1095
2016-05-09T05:42:30.940Z,1085
2016-05-09T05:43:30.817Z,1125
2016-05-09T05:44:31.914Z,1235
2016-05-09T05:45:31.104Z,1245
2016-05-09T05:46:31.045Z,1225
2016-05-09T05:47:31.125Z,1240
2016-05-09T05:48:30.800Z,1240
2016-05-09T05:49:43.739Z,1290
2016-05-09T05:50:31.180Z,1315
2016-05-09T05:51:31.057Z,1275
2016-05-09T05:52:43.966Z,1330
2016-05-09T05:53:31.267Z,1355
2016-05-09T05:54:31.300Z,1355
2016-05-09T05:55:31.350Z,1365
2016-05-09T05:56:31.227Z,1370
2016-05-09T05:57:31.417Z,1415
2016-05-09T05:58:31.263Z,1415
2016-05-09T05:59:32.391Z,1350
2016-05-09T06:00:31.547Z,1405
2016-05-09T06:01:31.469Z,1505
2016-05-09T06:02:33.296Z,1525
2016-05-09T06:03:33.249Z,1470
2016-05-09T06:04:31.952Z,1445
2016-05-09T06:05:31.720Z,1445
2016-05-09T06:06:32.021Z,1395
2016-05-09T06:07:32.038Z,1470
2016-05-09T06:08:38.400Z,1430
2016-05-09T06:09:32.122Z,1480
2016-05-09T06:10:32.099Z,1455
2016-05-09T06:11:32.201Z,1450
2016-05-09T06:12:32.304Z,1480
2016-05-09T06:13:32.255Z,1530
2016-05-09T06:14:32.294Z,1565
2016-05-09T06:15:32.159Z,1590
2016-05-09T06:16:32.069Z,1605
2016-05-09T06:17:32.371Z,1575
2016-05-09T06:18:32.282Z,1530
2016-05-09T06:19:32.505Z,1525
2016-05-09T06:20:32.367Z,1520
2016-05-09T06:21:32.512Z,1550
2016-05-09T06:22:32.562Z,1580
2016-05-09T06:23:32.424Z,1600
2016-05-09T06:24:32.428Z,1650
2016-05-09T06:25:32.681Z,1630
2016-05-09T06:26:32.700Z,1660
2016-05-09T06:27:32.578Z,1645
2016-05-09T06:28:34.205Z,1600
2016-05-09T06:29:45.411Z,1610
2016-05-09T06:30:32.664Z,1605
2016-05-09T06:31:32.838Z,1575
2016-05-09T06:32:33.027Z,1610
2016-05-09T06:33:32.765Z,1625
2016-05-09T06:34:32.986Z,1650
2016-05-09T06:35:32.817Z,1660
2016-05-09T06:36:34.414Z,1660
2016-05-09T06:37:34.401Z,1650
2016-05-09T06:39:42.625Z,1715
2016-05-09T06:40:48.971Z,1720
2016-05-09T06:41:53.099Z,1700
2016-05-09T06:42:55.633Z,1685
2016-05-09T06:43:36.323Z,1695
2016-05-09T06:44:49.108Z,1685
2016-05-09T06:45:37.985Z,1655
2016-05-09T06:46:36.660Z,1615
2016-05-09T06:47:49.412Z,1685
2016-05-09T06:48:36.649Z,1705
2016-05-09T06:49:55.887Z,1710
2016-05-09T06:50:36.732Z,1680
2016-05-09T06:51:36.610Z,1685
2016-05-09T06:52:36.628Z,1680
2016-05-09T06:53:38.319Z,1695
2016-05-09T06:54:36.868Z,1750
2016-05-09T06:55:36.903Z,1870
2016-05-09T06:56:36.953Z,1925
2016-05-09T06:57:36.986Z,1800
2016-05-09T06:58:36.989Z,1790
2016-05-09T06:59:36.882Z,1765
2016-05-09T07:00:37.056Z,1725
2016-05-09T07:01:38.372Z,1755
2016-05-09T07:02:37.218Z,1755
2016-05-09T07:03:56.346Z,1770
2016-05-09T07:04:37.208Z,1720
2016-05-09T07:06:39.855Z,1745
2016-05-09T07:07:18.511Z,1670
2016-05-09T07:07:52.700Z,1630
2016-05-09T07:08:52.719Z,1525
2016-05-09T07:10:05.377Z,1630
2016-05-09T07:10:53.911Z,1790
2016-05-09T07:12:18.243Z,1805
2016-05-09T07:12:52.714Z,1710
2016-05-09T07:13:52.858Z,1720
2016-05-09T07:15:05.594Z,1840
2016-05-09T07:16:55.849Z,1845
2016-05-09T07:18:15.071Z,1805
2016-05-09T07:18:55.777Z,1795
2016-05-09T07:21:01.470Z,1830
2016-05-09T07:21:14.017Z,1805
2016-05-09T07:22:14.020Z,1785
2016-05-09T07:23:14.225Z,1845
2016-05-09T07:24:26.668Z,1820
2016-05-09T07:25:15.762Z,1880
2016-05-09T07:26:14.343Z,1850
2016-05-09T07:27:18.689Z,1810
2016-05-09T07:28:14.223Z,1870
2016-05-09T07:29:17.585Z,1850
2016-05-09T07:30:15.885Z,1870
2016-05-09T07:31:20.762Z,1925
2016-05-09T07:32:17.405Z,1875
2016-05-09T07:33:14.596Z,1780
2016-05-09T07:34:27.367Z,1795
2016-05-09T07:35:17.820Z,1830
2016-05-09T07:36:33.872Z,1855
2016-05-09T07:37:27.325Z,1820
2016-05-09T07:38:40.097Z,1800
2016-05-09T07:40:24.411Z,1835
2016-05-09T07:41:36.730Z,1850
2016-05-09T07:42:24.199Z,1865
2016-05-09T07:44:21.454Z,1875
2016-05-09T07:44:35.394Z,1885
2016-05-09T07:46:24.693Z,1785
2016-05-09T07:46:37.508Z,1770
2016-05-09T07:48:36.123Z,1815
2016-05-09T07:48:48.623Z,1840
2016-05-09T07:50:07.892Z,1885
2016-05-09T07:50:50.321Z,1880
2016-05-09T07:52:07.949Z,1870
2016-05-09T07:52:48.812Z,1860
2016-05-09T07:53:48.673Z,1850
2016-05-09T07:54:49.005Z,1890
2016-05-09T07:55:49.063Z,1855
2016-05-09T07:57:01.847Z,1935
2016-05-09T07:58:01.865Z,1850
2016-05-09T07:59:10.259Z,1745
2016-05-09T08:00:08.386Z,1080
2016-05-09T08:01:20.498Z,330
2016-05-09T08:02:20.626Z,315
2016-05-09T08:02:49.269Z,305
2016-05-09T08:03:49.459Z,295
2016-05-09T08:05:03.040Z,285
2016-05-09T08:06:22.855Z,280
2016-05-09T08:06:57.139Z,280
2016-05-09T08:07:58.079Z,275
2016-05-09T08:09:21.676Z,275
2016-05-09T08:10:07.366Z,270
2016-05-09T08:10:49.588Z,270
2016-05-09T08:12:19.325Z,265
2016-05-09T08:12:49.312Z,265
2016-05-09T08:14:52.192Z,265
2016-05-09T08:15:04.723Z,265
2016-05-09T08:16:04.929Z,265
2016-05-09T08:17:04.948Z,265
2016-05-09T08:18:17.545Z,265
2016-05-09T08:19:24.062Z,265
2016-05-09T08:20:30.689Z,265
2016-05-09T08:21:24.318Z,260
2016-05-09T08:22:30.648Z,260
2016-05-09T08:24:02.170Z,260
2016-05-09T08:24:14.701Z,260
2016-05-09T08:25:14.892Z,260
2016-05-09T08:26:16.628Z,260
2016-05-09T08:27:14.912Z,260
2016-05-09T08:28:27.524Z,260
2016-05-09T08:29:16.449Z,255
2016-05-09T08:30:14.983Z,255
2016-05-09T08:31:14.907Z,255
2016-05-09T08:32:15.222Z,255
2016-05-09T08:33:34.290Z,255
2016-05-09T08:34:15.134Z,260
2016-05-09T08:35:46.436Z,255
2016-05-09T08:36:15.171Z,255
2016-05-09T08:37:15.189Z,255
2016-05-09T08:39:18.240Z,255
2016-05-09T08:41:21.341Z,255
2016-05-09T08:42:21.437Z,255
2016-05-09T08:43:22.737Z,255
2016-05-09T08:44:23.270Z,255
2016-05-09T08:45:34.088Z,255
2016-05-09T08:46:34.294Z,255
2016-05-09T08:47:43.797Z,255
2016-05-09T08:48:21.656Z,255
2016-05-09T08:49:21.456Z,255
2016-05-09T08:50:34.226Z,255
2016-05-09T08:51:34.261Z,255
2016-05-09T08:52:47.248Z,255
2016-05-09T08:53:21.764Z,255
2016-05-09T08:55:18.987Z,255
2016-05-09T08:55:31.675Z,255
2016-05-09T08:57:34.433Z,255
2016-05-09T08:57:47.245Z,255
2016-05-09T08:58:47.967Z,255
2016-05-09T08:59:47.266Z,255
2016-05-09T09:00:47.035Z,255
2016-05-09T09:01:47.225Z,255
2016-05-09T09:02:47.243Z,255
2016-05-09T09:03:47.308Z,255
2016-05-09T09:04:47.124Z,255
2016-05-09T09:05:47.141Z,255
2016-05-09T09:06:48.566Z,255
2016-05-09T09:07:48.771Z,250
2016-05-09T09:08:47.229Z,255
2016-05-09T09:09:47.246Z,250
2016-05-09T09:10:47.295Z,250
2016-05-09T09:11:47.298Z,250
2016-05-09T09:12:49.021Z,250
2016-05-09T09:13:48.945Z,250
2016-05-09T09:15:06.651Z,250
2016-05-09T09:15:52.029Z,255
2016-05-09T09:17:50.940Z,250
2016-05-09T09:18:03.487Z,250
2016-05-09T09:19:03.459Z,245
2016-05-09T09:20:03.429Z,245
2016-05-09T09:21:03.542Z,245
2016-05-09T09:22:22.778Z,245
2016-05-09T09:23:05.000Z,245
2016-05-09T09:25:00.568Z,245
2016-05-09T09:25:13.350Z,245
2016-05-09T09:26:25.883Z,245
2016-05-09T09:27:26.089Z,245
2016-05-09T09:28:13.373Z,245
2016-05-09T09:29:26.110Z,245
2016-05-09T09:30:13.378Z,245
2016-05-09T09:31:13.490Z,245
2016-05-09T09:32:13.416Z,245
2016-05-09T09:33:13.418Z,240
2016-05-09T09:34:13.311Z,240
2016-05-09T09:35:15.017Z,240
2016-05-09T09:36:13.551Z,240
2016-05-09T09:37:13.538Z,240
2016-05-09T09:38:13.416Z,240
2016-05-09T09:39:26.027Z,240
2016-05-09T09:40:15.030Z,240
2016-05-09T09:41:14.940Z,240
2016-05-09T09:42:13.707Z,240
2016-05-09T09:43:13.741Z,245
2016-05-09T09:44:13.790Z,240
2016-05-09T09:45:16.810Z,240
2016-05-09T09:46:13.812Z,240
2016-05-09T09:47:13.845Z,240
2016-05-09T09:48:26.505Z,240
2016-05-09T09:49:13.882Z,240
2016-05-09T09:50:33.104Z,240
2016-05-09T09:51:26.169Z,240
2016-05-09T09:52:45.237Z,240
2016-05-09T09:53:39.646Z,240
2016-05-09T09:54:13.693Z,240
2016-05-09T09:55:39.573Z,235
2016-05-09T09:56:14.058Z,235
2016-05-09T09:58:30.766Z,235
2016-05-09T09:59:30.816Z,235
2016-05-09T10:00:32.208Z,235
2016-05-09T10:01:43.622Z,235
2016-05-09T10:02:30.903Z,235
2016-05-09T10:03:49.845Z,235
2016-05-09T10:04:43.661Z,230
2016-05-09T10:06:33.382Z,235
2016-05-09T10:06:58.665Z,235
2016-05-09T10:07:46.074Z,230
2016-05-09T10:09:11.936Z,230
2016-05-09T10:09:49.173Z,230
2016-05-09T10:10:46.160Z,230
2016-05-09T10:11:46.194Z,230
2016-05-09T10:12:49.104Z,230
2016-05-09T10:13:47.513Z,230
2016-05-09T10:15:05.468Z,230
2016-05-09T10:15:46.315Z,230
2016-05-09T10:16:46.396Z,230
2016-05-09T10:17:46.195Z,225
2016-05-09T10:18:47.651Z,230
2016-05-09T10:19:49.279Z,225
2016-05-09T10:21:05.343Z,225
2016-05-09T10:21:58.940Z,225
2016-05-09T10:22:46.646Z,225
2016-05-09T10:24:12.117Z,225
2016-05-09T10:24:48.104Z,225
2016-05-09T10:26:17.936Z,225
2016-05-09T10:26:47.969Z,225
2016-05-09T10:28:18.003Z,225
2016-05-09T10:28:59.240Z,225
2016-05-09T10:29:46.665Z,225
2016-05-09T10:31:05.902Z,225
2016-05-09T10:31:59.311Z,225
2016-05-09T10:33:05.954Z,225
2016-05-09T10:34:49.944Z,225
2016-05-09T10:35:49.791Z,225
2016-05-09T10:37:02.933Z,225
2016-05-09T10:37:49.686Z,225
2016-05-09T10:38:53.063Z,225
2016-05-09T10:39:53.129Z,225
2016-05-09T10:40:50.085Z,225
2016-05-09T10:42:02.682Z,225
2016-05-09T10:43:02.888Z,225
2016-05-09T10:44:09.218Z,225
2016-05-09T10:44:50.221Z,225
2016-05-09T10:45:52.254Z,225
2016-05-09T10:46:53.132Z,225
2016-05-09T10:48:02.541Z,225
2016-05-09T10:49:04.310Z,225
2016-05-09T10:50:47.299Z,225
2016-05-09T10:51:19.034Z,225
2016-05-09T10:52:19.301Z,225
2016-05-09T10:53:01.445Z,230
2016-05-09T10:54:31.354Z,230
2016-05-09T10:55:09.373Z,230
2016-05-09T10:55:59.954Z,235
2016-05-09T10:57:12.722Z,230
2016-05-09T10:58:00.178Z,230
2016-05-09T10:59:00.070Z,225
2016-05-09T11:00:19.433Z,225
2016-05-09T11:01:12.998Z,220
2016-05-09T11:02:31.547Z,220
2016-05-09T11:03:51.006Z,220
2016-05-09T11:04:03.663Z,220
2016-05-09T11:05:03.696Z,220
2016-05-09T11:06:03.730Z,225
2016-05-09T11:07:22.967Z,220
2016-05-09T11:08:16.517Z,220
2016-05-09T11:09:29.535Z,215
2016-05-09T11:10:24.460Z,215
2016-05-09T11:11:35.149Z,215
2016-05-09T11:13:00.844Z,215
2016-05-09T11:13:13.578Z,215
2016-05-09T11:15:16.427Z,215
2016-05-09T11:15:29.114Z,215
2016-05-09T11:16:28.976Z,215
2016-05-09T11:17:29.197Z,220
2016-05-09T11:18:41.937Z,220
2016-05-09T11:19:41.831Z,225
2016-05-09T11:20:54.926Z,220
2016-05-09T11:23:22.792Z,215
2016-05-09T11:24:29.435Z,215
2016-05-09T11:25:29.298Z,215
2016-05-09T11:26:13.315Z,220
2016-05-09T11:27:35.865Z,220
2016-05-09T11:28:22.618Z,220
2016-05-09T11:29:23.401Z,220
2016-05-09T11:30:36.138Z,220
2016-05-09T11:31:36.095Z,220
2016-05-09T11:32:41.613Z,220
2016-05-09T11:33:36.178Z,220
2016-05-09T11:34:10.524Z,220
2016-05-09T11:36:07.514Z,220
2016-05-09T11:36:20.311Z,220
2016-05-09T11:38:22.817Z,220
2016-05-09T11:38:35.489Z,220
2016-05-09T11:39:35.632Z,220
2016-05-09T11:40:48.309Z,215
2016-05-09T11:41:48.186Z,215
2016-05-09T11:43:06.580Z,215
2016-05-09T11:44:01.317Z,215
2016-05-09T11:44:35.583Z,215
2016-05-09T11:45:37.101Z,220
2016-05-09T11:46:37.166Z,210
2016-05-09T11:47:54.938Z,210
2016-05-09T11:48:48.455Z,210
2016-05-09T11:50:01.473Z,215
2016-05-09T11:50:35.848Z,210
2016-05-09T11:51:37.148Z,210
2016-05-09T11:52:35.885Z,210
2016-05-09T11:53:35.935Z,210
2016-05-09T11:54:48.706Z,210
2016-05-09T11:55:35.815Z,210
2016-05-09T11:56:35.989Z,210
2016-05-09T11:57:37.430Z,210
2016-05-09T11:58:37.559Z,210
2016-05-09T11:59:39.342Z,210
2016-05-09T12:00:35.953Z,210
2016-05-09T12:01:42.394Z,210
2016-05-09T12:02:48.759Z,210
2016-05-09T12:03:48.762Z,210
2016-05-09T12:04:56.092Z,210
2016-05-09T12:05:55.454Z,210
2016-05-09T12:07:01.847Z,210
2016-05-09T12:07:49.070Z,210
2016-05-09T12:09:14.806Z,210
2016-05-09T12:10:33.324Z,210
2016-05-09T12:10:45.999Z,210
2016-05-09T12:11:46.063Z,210
2016-05-09T12:12:47.333Z,210
2016-05-09T12:13:58.804Z,210
2016-05-09T12:14:46.713Z,210
2016-05-09T12:16:48.796Z,210
2016-05-09T12:17:01.499Z,210
2016-05-09T12:18:01.533Z,210
2016-05-09T12:19:14.411Z,205
2016-05-09T12:20:02.913Z,210
2016-05-09T12:21:27.338Z,205
2016-05-09T12:22:01.482Z,205
2016-05-09T12:23:34.376Z,205
2016-05-09T12:24:14.565Z,205
2016-05-09T12:25:01.567Z,205
2016-05-09T12:27:00.136Z,205
2016-05-09T12:27:12.698Z,205
2016-05-09T12:28:12.701Z,205
2016-05-09T12:29:14.407Z,205
2016-05-09T12:30:14.019Z,205
2016-05-09T12:32:15.868Z,205
2016-05-09T12:32:28.540Z,205
2016-05-09T12:33:28.574Z,205
2016-05-09T12:34:41.233Z,205
2016-05-09T12:35:41.048Z,205
2016-05-09T12:36:28.488Z,205
2016-05-09T12:38:38.384Z,205
2016-05-09T12:38:50.918Z,205
2016-05-09T12:39:50.936Z,205
2016-05-09T12:40:52.392Z,205
2016-05-09T12:42:03.708Z,210
2016-05-09T12:43:03.585Z,210
2016-05-09T12:44:16.884Z,205
2016-05-09T12:44:51.153Z,205
2016-05-09T12:45:51.125Z,205
2016-05-09T12:46:52.565Z,205
2016-05-09T12:47:51.005Z,205
2016-05-09T12:48:59.663Z,205
2016-05-09T12:49:51.183Z,210
2016-05-09T12:50:59.247Z,210
2016-05-09T12:51:51.110Z,210
2016-05-09T12:52:50.971Z,210
2016-05-09T12:54:03.958Z,210
2016-05-09T12:54:52.633Z,210
2016-05-09T12:55:51.418Z,210
2016-05-09T12:56:54.310Z,210
2016-05-09T12:57:52.501Z,210
2016-05-09T12:58:51.175Z,210
2016-05-09T12:59:51.115Z,210
2016-05-09T13:00:51.540Z,210
2016-05-09T13:01:51.434Z,215
2016-05-09T13:02:54.967Z,220
2016-05-09T13:03:53.017Z,225
2016-05-09T13:04:53.081Z,225
2016-05-09T13:05:54.787Z,230
2016-05-09T13:06:54.900Z,220
2016-05-09T13:07:57.965Z,220
2016-05-09T13:08:52.092Z,230
2016-05-09T13:09:51.814Z,225
2016-05-09T13:10:53.222Z,220
2016-05-09T13:11:51.803Z,210
2016-05-09T13:13:11.088Z,210
2016-05-09T13:15:26.375Z,210
2016-05-09T13:16:26.471Z,210
2016-05-09T13:17:39.036Z,205
2016-05-09T13:18:39.226Z,205
2016-05-09T13:19:39.230Z,205
2016-05-09T13:21:23.516Z,205
2016-05-09T13:21:36.172Z,205
2016-05-09T13:23:33.208Z,205
2016-05-09T13:24:11.570Z,205
2016-05-09T13:26:20.420Z,205
2016-05-09T13:27:01.719Z,205
2016-05-09T13:28:49.068Z,205
2016-05-09T13:29:50.352Z,205
2016-05-09T13:31:08.496Z,205
2016-05-09T13:32:02.029Z,205
2016-05-09T13:33:15.532Z,205
2016-05-09T13:35:17.304Z,205
2016-05-09T13:36:31.806Z,205
2016-05-09T13:37:13.246Z,205
2016-05-09T13:39:20.251Z,210
2016-05-09T13:40:39.613Z,210
2016-05-09T13:41:32.881Z,210
2016-05-09T13:42:20.306Z,210
2016-05-09T13:43:20.356Z,205
2016-05-09T13:44:21.827Z,205
2016-05-09T13:45:20.580Z,205
2016-05-09T13:46:20.458Z,205
2016-05-09T13:47:20.476Z,205
2016-05-09T13:48:21.072Z,205
2016-05-09T13:49:20.824Z,205
2016-05-09T13:50:39.921Z,205
2016-05-09T13:51:28.408Z,205
2016-05-09T13:52:51.743Z,205
2016-05-09T13:53:20.868Z,205
2016-05-09T13:54:21.010Z,205
2016-05-09T13:55:40.044Z,210
2016-05-09T13:56:20.938Z,205
2016-05-09T13:57:33.675Z,205
2016-05-09T13:58:40.084Z,205
2016-05-09T13:59:22.290Z,205
2016-05-09T14:01:17.967Z,200
2016-05-09T14:01:36.904Z,195
2016-05-09T14:02:30.548Z,205
2016-05-09T14:05:05.884Z,205
2016-05-09T14:05:34.040Z,205
2016-05-09T14:07:18.920Z,205
2016-05-09T14:07:33.936Z,205
2016-05-09T14:09:05.161Z,205
2016-05-09T14:09:46.379Z,210
2016-05-09T14:10:33.959Z,210
2016-05-09T14:11:53.168Z,210
2016-05-09T14:12:41.308Z,210
2016-05-09T14:14:49.267Z,210
2016-05-09T14:15:14.723Z,210
2016-05-09T14:16:01.991Z,210
2016-05-09T14:17:02.025Z,210
2016-05-09T14:18:03.638Z,210
2016-05-09T14:19:21.281Z,205
2016-05-09T14:20:03.455Z,205
2016-05-09T14:21:27.802Z,205
2016-05-09T14:22:01.852Z,205
2016-05-09T14:23:02.026Z,205
2016-05-09T14:24:02.216Z,205
2016-05-09T14:25:14.812Z,205
2016-05-09T14:26:10.003Z,210
2016-05-09T14:27:03.365Z,210
2016-05-09T14:28:02.305Z,210
2016-05-09T14:29:21.980Z,210
2016-05-09T14:30:03.826Z,205
2016-05-09T14:32:37.848Z,210
2016-05-09T14:33:12.100Z,215